createdAt,value
2022-12-03T00:03:43.852Z,7.90
2022-12-03T00:13:47.159Z,8.17
2022-12-03T00:23:51.661Z,7.73
2022-12-03T00:33:54.840Z,7.17
2022-12-03T00:43:59.735Z,6.83
2022-12-03T00:54:02.934Z,6.97
2022-12-03T01:04:07.649Z,5.30
2022-12-03T01:14:13.549Z,5.07
2022-12-03T01:24:18.847Z,4.83
2022-12-03T01:34:21.998Z,5.10
2022-12-03T01:44:29.777Z,4.63
2022-12-03T01:54:39.991Z,5.40
2022-12-03T02:04:44.336Z,4.60
2022-12-03T02:14:48.422Z,5.80
2022-12-03T02:24:58.955Z,6.60
2022-12-03T02:35:03.328Z,5.57
2022-12-03T02:45:12.019Z,6.70
2022-12-03T02:55:19.002Z,7.30
2022-12-03T03:05:24.698Z,7.33
2022-12-03T03:15:29.160Z,8.27
2022-12-03T03:25:32.228Z,9.13
2022-12-03T03:35:39.032Z,9.53
2022-12-03T03:45:42.513Z,8.93
2022-12-03T03:55:47.384Z,8.73
2022-12-03T04:05:51.242Z,8.20
2022-12-03T04:15:55.512Z,8.47
2022-12-03T04:26:15.914Z,9.27
2022-12-03T04:36:20.333Z,7.97
2022-12-03T04:46:23.376Z,8.80
2022-12-03T04:56:27.613Z,9.47
2022-12-03T05:06:30.745Z,8.33
2022-12-03T05:16:35.338Z,8.17
2022-12-03T05:26:38.518Z,7.97
2022-12-03T05:36:42.694Z,7.30
2022-12-03T05:46:45.937Z,7.77
2022-12-03T05:56:50.425Z,7.60
2022-12-03T06:06:53.291Z,7.93
2022-12-03T06:16:57.746Z,7.53
2022-12-03T06:27:01.755Z,8.00
2022-12-03T06:37:05.907Z,6.70
2022-12-03T06:47:08.910Z,6.70
2022-12-03T06:57:13.308Z,7.60
2022-12-03T07:07:16.027Z,7.90
2022-12-03T07:17:20.709Z,8.03
2022-12-03T07:27:23.851Z,6.50
2022-12-03T07:37:28.236Z,6.97
2022-12-03T07:47:31.262Z,6.57
2022-12-03T07:57:35.839Z,7.00
2022-12-03T08:07:39.168Z,7.50
2022-12-03T08:17:44.262Z,7.00
2022-12-03T08:27:47.398Z,7.67
2022-12-03T08:37:58.755Z,6.73
2022-12-03T08:48:05.953Z,7.57
2022-12-03T08:58:22.657Z,7.67
2022-12-03T09:08:25.719Z,7.83
2022-12-03T09:18:29.971Z,7.50
2022-12-03T09:28:36.876Z,7.17
2022-12-03T09:38:46.113Z,7.43
2022-12-03T09:48:50.993Z,7.93
2022-12-03T09:58:57.183Z,8.33
2022-12-03T10:09:00.538Z,8.40
2022-12-03T10:19:04.882Z,7.27
2022-12-03T10:29:13.906Z,9.20
2022-12-03T10:39:18.354Z,9.90
2022-12-03T10:49:21.396Z,9.80
2022-12-03T10:59:27.098Z,9.27
2022-12-03T11:09:32.851Z,11.17
2022-12-03T11:19:50.730Z,11.03
2022-12-03T11:29:56.431Z,11.17
2022-12-03T11:40:39.576Z,11.83
2022-12-03T11:50:44.932Z,13.53
2022-12-03T12:00:53.955Z,14.30
2022-12-03T12:10:56.789Z,13.17
2022-12-03T12:21:33.397Z,13.50
2022-12-03T12:31:37.909Z,14.87
2022-12-03T12:41:41.719Z,14.40
2022-12-03T12:51:47.324Z,15.17
2022-12-03T13:01:52.783Z,16.17
2022-12-03T13:11:59.091Z,15.73
2022-12-03T13:22:03.844Z,15.67
2022-12-03T13:32:12.751Z,16.27
2022-12-03T13:42:38.884Z,16.80
2022-12-03T13:52:43.301Z,16.17
2022-12-03T14:02:46.414Z,16.70
2022-12-03T14:12:50.809Z,16.43
2022-12-03T14:22:58.999Z,18.57
2022-12-03T14:33:04.129Z,16.53
2022-12-03T14:43:06.947Z,17.40
2022-12-03T14:53:11.274Z,18.53
2022-12-03T15:03:14.354Z,18.50
2022-12-03T15:13:18.768Z,17.57
2022-12-03T15:23:21.887Z,17.57
2022-12-03T15:33:26.268Z,18.30
2022-12-03T15:43:29.222Z,17.13
2022-12-03T15:53:33.596Z,17.60
2022-12-03T16:03:51.948Z,16.05
2022-12-03T16:13:56.269Z,16.60
2022-12-03T16:24:00.446Z,17.07
2022-12-03T16:34:04.686Z,16.40
2022-12-03T16:44:07.508Z,17.43
2022-12-03T16:54:12.136Z,15.93
2022-12-03T17:04:14.871Z,15.67
2022-12-03T17:14:19.046Z,14.57
2022-12-03T17:24:22.510Z,14.63
2022-12-03T17:34:27.372Z,14.70
2022-12-03T17:44:30.083Z,14.90
2022-12-03T17:55:01.856Z,15.37
2022-12-03T18:04:57.175Z,14.40
2022-12-03T18:15:01.605Z,14.73
2022-12-03T18:25:05.156Z,12.67
2022-12-03T18:35:10.234Z,12.93
2022-12-03T18:45:15.126Z,10.93
2022-12-03T18:55:20.991Z,11.80
2022-12-03T19:05:24.020Z,12.73
2022-12-03T19:15:28.487Z,11.80
2022-12-03T19:25:31.801Z,11.27
2022-12-03T19:35:41.209Z,12.23
2022-12-03T19:45:45.841Z,9.07
2022-12-03T19:55:50.213Z,11.67
2022-12-03T22:43:56.648Z,14.70
2022-12-03T22:54:02.829Z,17.27
2022-12-03T23:04:06.869Z,15.87
2022-12-03T23:14:11.431Z,15.50
2022-12-03T23:24:14.597Z,14.93
2022-12-03T23:34:19.134Z,16.40
2022-12-03T23:44:22.626Z,15.73
2022-12-03T23:54:27.102Z,13.90
